Time;durP1;ratioP1;P1;durP2;ratioP2;P2;SDS_P1;SDS_P2;PMS_P1;PMS_P2;Temp;Humidity;BMP_temperature;BMP_pressure;BME280_temperature;BME280_humidity;BME280_pressure;Samples;Min_cycle;Max_cycle;Signal;HPM_P1;HPM_P2
2022/09/20 00:01:55;;;;;;;;;;;;;;;9.97;100.00;98540.97;2211745;80;20156;-58
2022/09/20 00:04:56;;;;;;;;;;;;;;;9.86;100.00;98545.56;2198680;80;20106;-58
2022/09/20 00:07:58;;;;;;;;;;;;;;;9.83;100.00;98548.38;2181460;80;20479;-59
2022/09/20 00:11:01;;;;;;;;;;;;;;;9.89;100.00;98549.77;2216535;80;20108;-58
2022/09/20 00:14:02;;;;;;;;;;;;;;;9.84;100.00;98551.83;2200577;80;20122;-58
2022/09/20 00:17:04;;;;;;;;;;;;;;;9.81;100.00;98548.09;2208767;80;20131;-57
2022/09/20 00:20:05;;;;;;;;;;;;;;;9.77;100.00;98550.52;2198201;80;20147;-58
2022/09/20 00:23:06;;;;;;;;;;;;;;;9.65;100.00;98556.89;2212492;80;20399;-58
2022/09/20 00:26:08;;;;;;;;;;;;;;;9.57;100.00;98553.06;2201561;80;20108;-58
2022/09/20 00:29:11;;;;;;;;;;;;;;;9.59;100.00;98550.73;2189953;80;20419;-59
2022/09/20 00:32:13;;;;;;;;;;;;;;;9.56;100.00;98556.16;2215505;80;20131;-58
2022/09/20 00:35:14;;;;;;;;;;;;;;;9.56;100.00;98552.23;2200026;80;20482;-58
2022/09/20 00:38:16;;;;;;;;;;;;;;;9.54;100.00;98558.05;2220237;80;20108;-59
2022/09/20 00:41:17;;;;;;;;;;;;;;;9.53;100.00;98552.42;2210807;80;20128;-59
2022/09/20 00:44:19;;;;;;;;;;;;;;;9.55;100.00;98561.01;2211700;80;20133;-58
2022/09/20 00:47:21;;;;;;;;;;;;;;;9.60;100.00;98566.82;2211442;80;20088;-57
2022/09/20 00:50:22;;;;;;;;;;;;;;;9.63;100.00;98564.01;2206667;80;20613;-58
2022/09/20 00:53:25;;;;;;;;;;;;;;;9.53;100.00;98565.03;2208056;80;20096;-57
2022/09/20 00:56:26;;;;;;;;;;;;;;;9.53;100.00;98568.96;2206086;80;20105;-58
2022/09/20 00:59:29;;;;;;;;;;;;;;;9.48;100.00;98569.73;2203909;80;20093;-58
2022/09/20 01:02:30;;;;;;;;;;;;;;;9.47;100.00;98569.34;2205337;80;20423;-58
2022/09/20 01:05:32;;;;;;;;;;;;;;;9.55;100.00;98566.25;2207936;79;20104;-58
2022/09/20 01:08:33;;;;;;;;;;;;;;;9.49;100.00;98558.77;2198821;80;20119;-58
2022/09/20 01:11:35;;;;;;;;;;;;;;;9.46;100.00;98555.04;2203064;80;20113;-57
2022/09/20 01:14:37;;;;;;;;;;;;;;;9.41;100.00;98565.80;2203227;80;20127;-58
2022/09/20 01:17:38;;;;;;;;;;;;;;;9.45;100.00;98561.20;2204332;80;20425;-57
2022/09/20 01:20:40;;;;;;;;;;;;;;;9.45;100.00;98562.06;2199040;80;20115;-58
2022/09/20 01:23:42;;;;;;;;;;;;;;;9.39;100.00;98560.27;2196398;80;20097;-57
2022/09/20 01:26:43;;;;;;;;;;;;;;;9.34;100.00;98569.72;2199977;80;20415;-58
2022/09/20 01:29:45;;;;;;;;;;;;;;;9.36;100.00;98566.05;2196965;80;20096;-58
2022/09/20 01:32:46;;;;;;;;;;;;;;;9.35;100.00;98567.45;2204341;80;20128;-58
2022/09/20 01:35:48;;;;;;;;;;;;;;;9.24;100.00;98566.80;2204196;80;20105;-57
2022/09/20 01:38:50;;;;;;;;;;;;;;;9.22;100.00;98562.59;2202706;79;20105;-58
2022/09/20 01:41:52;;;;;;;;;;;;;;;9.19;100.00;98555.31;2208266;80;20403;-57
2022/09/20 01:44:54;;;;;;;;;;;;;;;9.23;100.00;98567.73;2204092;80;20132;-57
2022/09/20 01:47:56;;;;;;;;;;;;;;;9.22;100.00;98559.49;2207360;80;20097;-57
2022/09/20 01:50:57;;;;;;;;;;;;;;;9.16;100.00;98560.70;2205639;80;20108;-57
2022/09/20 01:53:58;;;;;;;;;;;;;;;9.21;100.00;98554.35;2205236;80;20135;-58
2022/09/20 01:57:00;;;;;;;;;;;;;;;9.17;100.00;98563.70;2204191;80;20100;-58
2022/09/20 02:00:01;;;;;;;;;;;;;;;9.11;100.00;98566.69;2205679;80;20096;-59
2022/09/20 02:03:03;;;;;;;;;;;;;;;9.17;100.00;98565.48;2204880;80;20371;-58
2022/09/20 02:06:05;;;;;;;;;;;;;;;9.17;100.00;98569.41;2201470;80;20117;-58
2022/09/20 02:09:06;;;;;;;;;;;;;;;9.16;100.00;98563.79;2204363;80;20105;-58
2022/09/20 02:12:09;;;;;;;;;;;;;;;9.17;100.00;98574.16;2205522;80;20400;-58
2022/09/20 02:15:10;;;;;;;;;;;;;;;9.04;100.00;98567.12;2207873;80;20135;-58
2022/09/20 02:18:12;;;;;;;;;;;;;;;9.10;100.00;98572.84;2204739;80;20123;-59
2022/09/20 02:21:13;;;;;;;;;;;;;;;9.21;100.00;98575.28;2214890;80;20388;-58
2022/09/20 02:24:15;;;;;;;;;;;;;;;9.14;100.00;98575.66;2206105;80;20115;-58
2022/09/20 02:27:16;;;;;;;;;;;;;;;9.13;100.00;98579.67;2206103;80;20104;-58
2022/09/20 02:30:18;;;;;;;;;;;;;;;9.12;100.00;98574.92;2204268;80;20132;-58
2022/09/20 02:33:19;;;;;;;;;;;;;;;9.05;100.00;98574.05;2202289;80;20120;-59
2022/09/20 02:36:21;;;;;;;;;;;;;;;9.15;100.00;98573.88;2205392;80;20556;-58
2022/09/20 02:39:22;;;;;;;;;;;;;;;9.17;100.00;98579.40;2207744;80;20132;-58
2022/09/20 02:42:24;;;;;;;;;;;;;;;9.11;100.00;98582.86;2208647;79;20467;-58
2022/09/20 02:45:25;;;;;;;;;;;;;;;9.03;100.00;98585.91;2208904;80;20108;-58
2022/09/20 02:48:26;;;;;;;;;;;;;;;9.04;100.00;98582.81;2204588;80;20117;-58
2022/09/20 02:51:28;;;;;;;;;;;;;;;9.04;100.00;98586.73;2203938;80;20108;-59
2022/09/20 02:54:29;;;;;;;;;;;;;;;9.01;100.00;98587.78;2206186;80;20089;-58
2022/09/20 02:57:32;;;;;;;;;;;;;;;9.01;100.00;98578.16;2204334;80;20131;-58
2022/09/20 03:00:33;;;;;;;;;;;;;;;9.08;100.00;98583.02;2206633;80;20140;-58
2022/09/20 03:03:35;;;;;;;;;;;;;;;9.08;100.00;98594.34;2199770;80;20093;-58
2022/09/20 03:06:36;;;;;;;;;;;;;;;9.12;100.00;98589.31;2202701;80;20388;-58
2022/09/20 03:09:38;;;;;;;;;;;;;;;9.11;100.00;98588.92;2202805;80;20104;-58
2022/09/20 03:12:39;;;;;;;;;;;;;;;9.19;100.00;98592.39;2197106;80;20368;-58
2022/09/20 03:15:40;;;;;;;;;;;;;;;9.14;100.00;98599.20;2210082;80;20132;-59
2022/09/20 03:18:42;;;;;;;;;;;;;;;9.11;100.00;98588.92;2202456;80;20120;-58
2022/09/20 03:21:43;;;;;;;;;;;;;;;9.14;100.00;98593.98;2204403;80;20188;-58
2022/09/20 03:24:45;;;;;;;;;;;;;;;9.07;100.00;98595.75;2206754;80;20100;-57
2022/09/20 03:27:46;;;;;;;;;;;;;;;9.10;100.00;98596.88;2219601;79;20399;-58
2022/09/20 03:30:48;;;;;;;;;;;;;;;9.11;100.00;98602.48;2202351;80;20109;-58
2022/09/20 03:33:49;;;;;;;;;;;;;;;9.11;100.00;98606.41;2202537;80;20398;-58
2022/09/20 03:36:51;;;;;;;;;;;;;;;9.22;100.00;98609.69;2210148;80;20092;-58
2022/09/20 03:39:52;;;;;;;;;;;;;;;9.20;100.00;98604.55;2208458;80;20093;-58
2022/09/20 03:42:54;;;;;;;;;;;;;;;9.15;100.00;98610.50;2203399;80;20450;-57
2022/09/20 03:45:55;;;;;;;;;;;;;;;9.17;100.00;98616.52;2206591;80;20128;-57
2022/09/20 03:48:57;;;;;;;;;;;;;;;9.14;100.00;98610.98;2210627;80;20517;-57
2022/09/20 03:51:59;;;;;;;;;;;;;;;9.13;100.00;98616.31;2215981;80;20126;-57
2022/09/20 03:55:02;;;;;;;;;;;;;;;9.15;100.00;98613.13;2209267;80;20096;-59
2022/09/20 03:58:04;;;;;;;;;;;;;;;9.18;100.00;98610.35;2195681;80;20109;-58
2022/09/20 04:01:06;;;;;;;;;;;;;;;9.28;100.00;98614.55;2184999;80;20128;-58
2022/09/20 04:04:07;;;;;;;;;;;;;;;9.24;100.00;98613.05;2205314;80;20407;-59
2022/09/20 04:07:09;;;;;;;;;;;;;;;9.26;100.00;98614.64;2208098;80;20133;-58
2022/09/20 04:10:12;;;;;;;;;;;;;;;9.37;100.00;98621.87;2205926;80;20135;-58
2022/09/20 04:13:13;;;;;;;;;;;;;;;9.44;100.00;98627.13;2201038;80;20104;-58
2022/09/20 04:16:16;;;;;;;;;;;;;;;9.39;100.00;98632.26;2210607;80;20394;-58
2022/09/20 04:19:18;;;;;;;;;;;;;;;9.38;100.00;98629.25;2205446;80;20101;-58
2022/09/20 04:22:20;;;;;;;;;;;;;;;9.43;100.00;98633.29;2211501;79;20084;-57
2022/09/20 04:25:21;;;;;;;;;;;;;;;9.45;100.00;98637.98;2207389;80;20108;-58
2022/09/20 04:28:22;;;;;;;;;;;;;;;9.45;100.00;98639.73;2200259;80;20109;-58
2022/09/20 04:31:24;;;;;;;;;;;;;;;9.48;100.00;98646.09;2201274;80;20119;-58
2022/09/20 04:36:27;;;;;;;;;;;;;;;9.49;100.00;98645.17;2203098;80;20120;-58
2022/09/20 04:37:31;;;;;;;;;;;;;;;9.45;100.00;98639.29;2188130;79;20120;-58
2022/09/20 04:40:32;;;;;;;;;;;;;;;9.48;100.00;98651.33;2164283;80;20438;-58
2022/09/20 04:43:34;;;;;;;;;;;;;;;9.52;100.00;98647.16;2205477;80;20148;-58
2022/09/20 04:46:35;;;;;;;;;;;;;;;9.49;100.00;98651.72;2204674;80;20136;-59
2022/09/20 04:49:37;;;;;;;;;;;;;;;9.57;100.00;98649.50;2201537;80;20100;-58
2022/09/20 04:52:38;;;;;;;;;;;;;;;9.62;100.00;98651.83;2202375;80;20096;-58
2022/09/20 04:55:40;;;;;;;;;;;;;;;9.62;100.00;98652.66;2209930;80;20396;-59
2022/09/20 04:58:41;;;;;;;;;;;;;;;9.73;100.00;98653.82;2206430;80;20108;-58
2022/09/20 05:01:42;;;;;;;;;;;;;;;9.81;100.00;98649.80;2201481;80;20395;-58
2022/09/20 05:04:44;;;;;;;;;;;;;;;9.88;100.00;98653.73;2205813;80;20100;-58
2022/09/20 05:07:47;;;;;;;;;;;;;;;9.95;100.00;98657.28;2210619;80;20104;-58
2022/09/20 05:10:48;;;;;;;;;;;;;;;9.96;100.00;98658.97;2203383;80;20100;-58
2022/09/20 05:13:50;;;;;;;;;;;;;;;9.97;100.00;98653.63;2205088;80;20148;-58
2022/09/20 05:16:51;;;;;;;;;;;;;;;10.00;100.00;98665.23;2203607;80;20097;-58
2022/09/20 05:19:54;;;;;;;;;;;;;;;10.04;100.00;98669.80;2204879;80;20383;-58
2022/09/20 05:22:56;;;;;;;;;;;;;;;10.01;100.00;98673.92;2206034;80;20108;-58
2022/09/20 05:25:57;;;;;;;;;;;;;;;9.89;100.00;98674.21;2205037;80;20117;-58
2022/09/20 05:28:59;;;;;;;;;;;;;;;9.92;100.00;98672.70;2203997;80;20139;-59
2022/09/20 05:32:01;;;;;;;;;;;;;;;9.92;100.00;98679.73;2208266;80;20101;-57
2022/09/20 05:35:03;;;;;;;;;;;;;;;9.92;100.00;98682.36;2205980;80;20144;-57
2022/09/20 05:38:04;;;;;;;;;;;;;;;9.95;100.00;98682.17;2199703;80;20107;-57
2022/09/20 05:41:06;;;;;;;;;;;;;;;9.94;100.00;98694.44;2204044;80;20097;-57
2022/09/20 05:44:08;;;;;;;;;;;;;;;9.91;100.00;98691.98;2208076;79;20195;-58
2022/09/20 05:47:09;;;;;;;;;;;;;;;9.95;100.00;98688.72;2204877;80;20520;-57
2022/09/20 05:50:11;;;;;;;;;;;;;;;9.94;100.00;98698.37;2205790;80;20183;-57
2022/09/20 05:53:12;;;;;;;;;;;;;;;9.97;100.00;98698.63;2196985;79;20092;-58
2022/09/20 05:56:14;;;;;;;;;;;;;;;9.97;100.00;98700.80;2209242;80;20124;-58
2022/09/20 05:59:15;;;;;;;;;;;;;;;9.99;100.00;98702.02;2206399;80;20132;-58
2022/09/20 06:02:17;;;;;;;;;;;;;;;10.03;100.00;98709.59;2207742;80;20387;-58
2022/09/20 06:05:20;;;;;;;;;;;;;;;10.04;100.00;98715.21;2208208;80;20372;-58
2022/09/20 06:08:22;;;;;;;;;;;;;;;10.04;100.00;98713.91;2204427;80;20158;-58
2022/09/20 06:11:23;;;;;;;;;;;;;;;10.10;100.00;98714.00;2205918;80;20100;-58
2022/09/20 06:14:26;;;;;;;;;;;;;;;10.05;100.00;98713.42;2203901;80;20116;-58
2022/09/20 06:17:28;;;;;;;;;;;;;;;10.01;100.00;98728.95;2205652;80;20096;-59
2022/09/20 06:20:29;;;;;;;;;;;;;;;9.98;100.00;98720.80;2200174;80;20120;-58
2022/09/20 06:23:31;;;;;;;;;;;;;;;10.01;100.00;98729.81;2203506;80;20112;-59
2022/09/20 06:26:32;;;;;;;;;;;;;;;10.00;100.00;98735.15;2207663;80;20101;-58
2022/09/20 06:29:34;;;;;;;;;;;;;;;9.94;100.00;98738.98;2206584;80;20432;-58
2022/09/20 06:32:35;;;;;;;;;;;;;;;9.93;100.00;98737.28;2208623;80;20096;-58
2022/09/20 06:35:37;;;;;;;;;;;;;;;9.90;100.00;98738.78;2210799;80;20108;-58
2022/09/20 06:41:42;;;;;;;;;;;;;;;9.99;100.00;98738.22;2186797;80;20105;-58
2022/09/20 06:44:43;;;;;;;;;;;;;;;9.94;100.00;98743.36;2205714;80;20100;-59
2022/09/20 06:47:45;;;;;;;;;;;;;;;9.89;100.00;98744.95;2204004;80;20407;-59
2022/09/20 06:50:46;;;;;;;;;;;;;;;9.95;100.00;98755.53;2206969;80;20108;-57
2022/09/20 06:53:47;;;;;;;;;;;;;;;9.97;100.00;98744.03;2207624;80;20097;-57
2022/09/20 06:56:49;;;;;;;;;;;;;;;10.10;100.00;98744.58;2204776;80;20128;-57
2022/09/20 06:59:51;;;;;;;;;;;;;;;10.17;100.00;98741.97;2208598;80;20109;-57
2022/09/20 07:02:55;;;;;;;;;;;;;;;10.17;100.00;98741.52;2204601;80;20423;-58
2022/09/20 07:05:56;;;;;;;;;;;;;;;10.47;100.00;98751.07;2180503;80;20101;-58
2022/09/20 07:08:58;;;;;;;;;;;;;;;10.39;100.00;98755.48;2209222;80;20414;-58
2022/09/20 07:11:59;;;;;;;;;;;;;;;10.54;100.00;98752.41;2206261;80;20154;-58
2022/09/20 07:15:01;;;;;;;;;;;;;;;10.78;100.00;98760.98;2204975;80;20116;-58
2022/09/20 07:18:02;;;;;;;;;;;;;;;10.97;100.00;98756.72;2205625;80;20116;-58
2022/09/20 07:21:05;;;;;;;;;;;;;;;11.04;100.00;98761.11;2204191;80;20109;-58
2022/09/20 07:24:06;;;;;;;;;;;;;;;11.30;100.00;98767.30;2203009;80;20108;-58
2022/09/20 07:27:08;;;;;;;;;;;;;;;11.61;100.00;98762.20;2210124;80;20120;-58
2022/09/20 07:30:09;;;;;;;;;;;;;;;11.74;100.00;98766.65;2194320;80;20187;-58
2022/09/20 07:33:16;;;;;;;;;;;;;;;11.68;100.00;98777.09;2203829;80;20408;-57
2022/09/20 07:36:15;;;;;;;;;;;;;;;11.70;100.00;98776.50;2176636;80;20100;-57
2022/09/20 07:39:16;;;;;;;;;;;;;;;11.68;100.00;98790.23;2216701;79;20528;-57
2022/09/20 07:42:18;;;;;;;;;;;;;;;11.60;100.00;98793.34;2206772;80;20225;-58
2022/09/20 07:45:20;;;;;;;;;;;;;;;11.62;100.00;98786.67;2209471;80;20108;-57
2022/09/20 07:48:21;;;;;;;;;;;;;;;11.64;100.00;98791.82;2203658;80;20383;-58
2022/09/20 07:51:23;;;;;;;;;;;;;;;11.77;100.00;98797.48;2209618;80;20266;-58
2022/09/20 07:54:26;;;;;;;;;;;;;;;11.75;100.00;98794.58;2200584;80;20190;-59
2022/09/20 07:57:28;;;;;;;;;;;;;;;11.92;100.00;98794.78;2189750;80;20115;-58
2022/09/20 08:00:29;;;;;;;;;;;;;;;11.95;100.00;98795.46;2206611;80;20096;-58
2022/09/20 08:03:31;;;;;;;;;;;;;;;11.84;100.00;98802.33;2204828;80;20109;-58
2022/09/20 08:06:33;;;;;;;;;;;;;;;11.69;100.00;98810.28;2204484;80;20501;-58
2022/09/20 08:09:34;;;;;;;;;;;;;;;11.71;100.00;98808.41;2200669;80;20113;-58
2022/09/20 08:12:36;;;;;;;;;;;;;;;11.83;100.00;98805.92;2205524;80;20117;-59
2022/09/20 08:15:37;;;;;;;;;;;;;;;11.89;100.00;98813.39;2209999;80;20109;-59
2022/09/20 08:18:39;;;;;;;;;;;;;;;11.95;100.00;98812.55;2204109;80;20112;-58
2022/09/20 08:21:40;;;;;;;;;;;;;;;11.98;100.00;98819.36;2205247;80;20100;-59
2022/09/20 08:24:43;;;;;;;;;;;;;;;12.03;100.00;98813.82;2208124;80;20103;-59
2022/09/20 08:27:44;;;;;;;;;;;;;;;12.16;100.00;98805.95;2201179;80;20104;-58
2022/09/20 08:30:46;;;;;;;;;;;;;;;12.28;100.00;98811.22;2207079;80;20411;-59
2022/09/20 08:33:48;;;;;;;;;;;;;;;12.31;100.00;98815.40;2205821;80;20128;-59
2022/09/20 08:36:51;;;;;;;;;;;;;;;12.46;100.00;98812.21;2206149;80;20096;-59
2022/09/20 08:39:53;;;;;;;;;;;;;;;12.44;100.00;98816.72;2212856;80;20171;-59
2022/09/20 08:42:54;;;;;;;;;;;;;;;12.37;100.00;98809.74;2205842;80;20406;-59
2022/09/20 08:45:56;;;;;;;;;;;;;;;12.29;100.00;98809.41;2202136;80;20089;-59
2022/09/20 08:48:57;;;;;;;;;;;;;;;12.22;100.00;98816.04;2206526;80;20104;-59
2022/09/20 08:51:58;;;;;;;;;;;;;;;12.15;100.00;98823.48;2207610;80;20128;-59
2022/09/20 08:55:00;;;;;;;;;;;;;;;12.08;100.00;98825.71;2206725;80;20152;-59
2022/09/20 08:58:02;;;;;;;;;;;;;;;12.04;100.00;98822.92;2207176;80;20120;-59
2022/09/20 09:01:04;;;;;;;;;;;;;;;12.11;100.00;98822.88;2206479;80;20127;-58
2022/09/20 09:04:06;;;;;;;;;;;;;;;12.11;100.00;98823.33;2204903;80;20120;-58
2022/09/20 09:07:08;;;;;;;;;;;;;;;12.13;100.00;98827.55;2202883;80;20386;-59
2022/09/20 09:10:10;;;;;;;;;;;;;;;12.23;100.00;98825.63;2202126;80;20096;-58
2022/09/20 09:13:11;;;;;;;;;;;;;;;12.34;100.00;98831.45;2212400;80;20186;-58
2022/09/20 09:16:14;;;;;;;;;;;;;;;12.51;100.00;98828.50;2202378;80;20431;-59
2022/09/20 09:19:15;;;;;;;;;;;;;;;12.79;100.00;98821.34;2210354;80;20104;-58
2022/09/20 09:22:17;;;;;;;;;;;;;;;13.00;100.00;98826.86;2207682;80;20116;-59
2022/09/20 09:25:18;;;;;;;;;;;;;;;13.25;100.00;98818.55;2205517;80;20422;-58
2022/09/20 09:28:19;;;;;;;;;;;;;;;13.10;100.00;98816.06;2209437;80;20129;-58
2022/09/20 09:31:21;;;;;;;;;;;;;;;12.85;100.00;98814.31;2208445;80;20124;-58
2022/09/20 09:34:22;;;;;;;;;;;;;;;12.81;100.00;98822.92;2205916;80;20099;-57
2022/09/20 09:37:24;;;;;;;;;;;;;;;12.70;100.00;98820.65;2210283;80;20103;-57
2022/09/20 09:40:26;;;;;;;;;;;;;;;12.62;100.00;98822.02;2202791;80;20396;-57
2022/09/20 09:43:28;;;;;;;;;;;;;;;12.85;100.00;98816.95;2204371;80;20092;-58
2022/09/20 09:46:30;;;;;;;;;;;;;;;13.22;100.00;98813.02;2201219;80;20097;-59
2022/09/20 09:49:34;;;;;;;;;;;;;;;13.47;100.00;98809.45;2207181;80;20096;-59
2022/09/20 09:52:35;;;;;;;;;;;;;;;13.33;100.00;98810.45;2180210;80;20109;-59
2022/09/20 09:55:37;;;;;;;;;;;;;;;13.32;100.00;98813.19;2205717;80;20372;-59
2022/09/20 09:58:38;;;;;;;;;;;;;;;13.26;100.00;98817.56;2202039;80;20112;-58
2022/09/20 10:01:40;;;;;;;;;;;;;;;13.18;100.00;98827.34;2206189;80;20380;-58
2022/09/20 10:04:41;;;;;;;;;;;;;;;13.26;100.00;98821.52;2204614;80;20109;-57
2022/09/20 10:07:43;;;;;;;;;;;;;;;13.30;100.00;98817.27;2209645;80;20096;-59
2022/09/20 10:10:46;;;;;;;;;;;;;;;13.44;100.00;98816.27;2206650;80;20476;-59
2022/09/20 10:13:47;;;;;;;;;;;;;;;13.70;100.00;98820.09;2202511;80;20158;-58
2022/09/20 10:16:49;;;;;;;;;;;;;;;13.76;100.00;98822.27;2208491;80;20427;-58
2022/09/20 10:19:50;;;;;;;;;;;;;;;13.76;100.00;98817.00;2202948;80;20115;-59
2022/09/20 10:22:52;;;;;;;;;;;;;;;13.75;100.00;98825.88;2200108;80;20391;-59
2022/09/20 10:25:53;;;;;;;;;;;;;;;13.84;100.00;98830.46;2205810;80;20097;-59
2022/09/20 10:28:55;;;;;;;;;;;;;;;13.95;100.00;98831.45;2204470;80;20093;-59
2022/09/20 10:31:56;;;;;;;;;;;;;;;14.14;100.00;98824.33;2214788;80;20425;-59
2022/09/20 10:34:58;;;;;;;;;;;;;;;14.26;100.00;98823.38;2203815;80;20109;-59
2022/09/20 10:38:00;;;;;;;;;;;;;;;14.38;100.00;98825.59;2208141;80;20132;-59
2022/09/20 10:44:04;;;;;;;;;;;;;;;14.69;100.00;98830.66;2179074;80;20403;-58
2022/09/20 10:47:06;;;;;;;;;;;;;;;14.76;100.00;98826.23;2202336;80;20093;-59
2022/09/20 10:50:08;;;;;;;;;;;;;;;15.10;100.00;98818.27;2186027;80;20097;-58
2022/09/20 10:53:09;;;;;;;;;;;;;;;15.15;100.00;98831.47;2207516;80;20200;-59
2022/09/20 10:56:11;;;;;;;;;;;;;;;15.10;100.00;98817.80;2204038;80;20112;-58
2022/09/20 10:59:13;;;;;;;;;;;;;;;15.22;100.00;98830.02;2197662;80;20198;-58
2022/09/20 11:02:15;;;;;;;;;;;;;;;14.96;100.00;98829.95;2207149;80;20097;-58
2022/09/20 11:05:17;;;;;;;;;;;;;;;14.83;100.00;98840.15;2207612;80;20100;-58
2022/09/20 11:08:21;;;;;;;;;;;;;;;14.94;100.00;98826.58;2204514;80;20406;-58
2022/09/20 11:11:21;;;;;;;;;;;;;;;15.15;100.00;98834.11;2173608;80;20132;-59
2022/09/20 11:14:23;;;;;;;;;;;;;;;15.16;100.00;98824.41;2204638;80;20088;-58
2022/09/20 11:17:25;;;;;;;;;;;;;;;15.07;100.00;98825.98;2212977;80;20151;-57
2022/09/20 11:20:27;;;;;;;;;;;;;;;15.01;100.00;98825.13;2203312;80;20104;-58
2022/09/20 11:23:28;;;;;;;;;;;;;;;14.97;100.00;98839.07;2201993;80;20109;-59
2022/09/20 11:26:30;;;;;;;;;;;;;;;14.81;100.00;98840.77;2209902;80;20141;-57
2022/09/20 11:29:31;;;;;;;;;;;;;;;14.56;100.00;98850.53;2216362;80;20391;-58
2022/09/20 11:32:33;;;;;;;;;;;;;;;14.37;100.00;98837.09;2208398;80;20096;-57
2022/09/20 11:35:34;;;;;;;;;;;;;;;14.32;100.00;98840.08;2205553;80;20121;-58
2022/09/20 11:38:35;;;;;;;;;;;;;;;14.26;100.00;98837.89;2208363;80;20100;-57
2022/09/20 11:41:37;;;;;;;;;;;;;;;14.40;100.00;98839.48;2205596;80;20108;-59
2022/09/20 11:44:38;;;;;;;;;;;;;;;14.55;100.00;98845.38;2211473;80;20406;-59
2022/09/20 11:47:40;;;;;;;;;;;;;;;15.02;100.00;98828.97;2205304;80;20108;-59
2022/09/20 11:50:41;;;;;;;;;;;;;;;15.58;100.00;98848.31;2206828;80;20135;-58
2022/09/20 11:53:43;;;;;;;;;;;;;;;15.61;100.00;98839.30;2203483;80;20109;-59
2022/09/20 11:56:45;;;;;;;;;;;;;;;15.38;100.00;98848.61;2209762;80;20420;-59
2022/09/20 11:59:46;;;;;;;;;;;;;;;15.29;100.00;98848.87;2209000;80;20101;-59
2022/09/20 12:02:48;;;;;;;;;;;;;;;15.45;100.00;98852.93;2210493;80;20146;-58
2022/09/20 12:05:51;;;;;;;;;;;;;;;15.42;100.00;98852.20;2207717;80;20498;-59
2022/09/20 12:08:52;;;;;;;;;;;;;;;15.44;100.00;98857.84;2206418;80;20116;-59
2022/09/20 12:11:54;;;;;;;;;;;;;;;15.20;100.00;98855.73;2203540;80;20154;-59
2022/09/20 12:14:55;;;;;;;;;;;;;;;15.16;100.00;98847.69;2202965;80;20375;-59
2022/09/20 12:17:57;;;;;;;;;;;;;;;15.04;100.00;98856.11;2200153;80;20136;-58
2022/09/20 12:20:58;;;;;;;;;;;;;;;15.14;100.00;98849.63;2204513;80;20152;-58
2022/09/20 12:24:00;;;;;;;;;;;;;;;14.91;100.00;98846.14;2205078;80;20162;-59
2022/09/20 12:27:02;;;;;;;;;;;;;;;14.81;100.00;98848.69;2202536;80;20119;-59
2022/09/20 12:30:03;;;;;;;;;;;;;;;14.64;100.00;98838.57;2202682;80;20159;-58
2022/09/20 12:33:05;;;;;;;;;;;;;;;14.45;100.00;98849.22;2203839;80;20214;-59
2022/09/20 12:36:06;;;;;;;;;;;;;;;14.35;100.00;98837.66;2197226;80;20119;-59
2022/09/20 12:39:09;;;;;;;;;;;;;;;14.30;100.00;98840.66;2205517;80;20088;-59
2022/09/20 12:42:11;;;;;;;;;;;;;;;14.22;100.00;98837.76;2204493;80;20105;-59
2022/09/20 12:45:13;;;;;;;;;;;;;;;14.30;100.00;98838.02;2203816;80;20100;-60
2022/09/20 12:48:14;;;;;;;;;;;;;;;14.53;100.00;98837.58;2200979;80;20127;-58
2022/09/20 12:54:20;;;;;;;;;;;;;;;14.36;100.00;98852.06;2177656;80;20380;-58
2022/09/20 12:57:22;;;;;;;;;;;;;;;14.16;100.00;98844.83;2210952;80;20158;-59
2022/09/20 13:00:24;;;;;;;;;;;;;;;14.42;100.00;98838.05;2199234;80;20096;-58
2022/09/20 13:03:27;;;;;;;;;;;;;;;14.95;100.00;98832.22;2202415;80;20100;-58
2022/09/20 13:06:28;;;;;;;;;;;;;;;15.22;100.00;98841.08;2210820;80;20419;-58
2022/09/20 13:09:30;;;;;;;;;;;;;;;15.72;100.00;98838.77;2206260;80;20101;-59
2022/09/20 13:12:32;;;;;;;;;;;;;;;15.98;100.00;98844.24;2201734;80;20176;-59
2022/09/20 13:15:33;;;;;;;;;;;;;;;15.90;100.00;98832.49;2209902;80;20159;-59
2022/09/20 13:18:35;;;;;;;;;;;;;;;15.27;100.00;98840.23;2204825;80;20552;-58
2022/09/20 13:21:37;;;;;;;;;;;;;;;15.21;100.00;98853.45;2209154;80;20095;-59
2022/09/20 13:24:38;;;;;;;;;;;;;;;14.92;100.00;98849.14;2200471;80;20108;-58
2022/09/20 13:27:40;;;;;;;;;;;;;;;14.51;100.00;98838.19;2207434;80;20101;-58
2022/09/20 13:30:42;;;;;;;;;;;;;;;15.03;100.00;98840.39;2205408;79;20127;-58
2022/09/20 13:33:43;;;;;;;;;;;;;;;15.59;100.00;98831.00;2204895;80;20420;-58
2022/09/20 13:36:45;;;;;;;;;;;;;;;16.00;100.00;98829.07;2209359;80;20149;-57
2022/09/20 13:39:46;;;;;;;;;;;;;;;15.55;100.00;98835.36;2203878;80;20103;-58
2022/09/20 13:42:48;;;;;;;;;;;;;;;14.96;100.00;98837.88;2203800;80;20136;-58
2022/09/20 13:45:49;;;;;;;;;;;;;;;15.34;100.00;98833.96;2203425;80;20093;-59
2022/09/20 13:48:51;;;;;;;;;;;;;;;15.86;100.00;98835.50;2202581;80;20699;-59
2022/09/20 13:51:52;;;;;;;;;;;;;;;16.16;100.00;98849.78;2207703;80;20104;-59
2022/09/20 13:54:55;;;;;;;;;;;;;;;16.13;100.00;98844.76;2207770;80;20097;-58
2022/09/20 13:57:56;;;;;;;;;;;;;;;15.60;100.00;98842.41;2209539;79;20431;-59
2022/09/20 14:00:58;;;;;;;;;;;;;;;15.56;100.00;98831.75;2208757;80;20104;-60
2022/09/20 14:03:59;;;;;;;;;;;;;;;15.91;100.00;98832.83;2206185;80;20108;-59
2022/09/20 14:07:01;;;;;;;;;;;;;;;16.21;100.00;98830.41;2207837;80;20144;-59
2022/09/20 14:10:03;;;;;;;;;;;;;;;16.40;100.00;98829.68;2205825;80;20133;-59
2022/09/20 14:13:06;;;;;;;;;;;;;;;16.41;100.00;98838.81;2202826;80;20130;-59
2022/09/20 14:16:08;;;;;;;;;;;;;;;16.19;100.00;98836.30;2208075;80;20104;-59
2022/09/20 14:19:10;;;;;;;;;;;;;;;15.92;100.00;98835.84;2202916;80;20125;-59
2022/09/20 14:22:11;;;;;;;;;;;;;;;15.29;100.00;98842.27;2206833;80;20109;-58
2022/09/20 14:25:13;;;;;;;;;;;;;;;15.47;100.00;98849.67;2205778;79;20403;-59
2022/09/20 14:28:14;;;;;;;;;;;;;;;15.64;100.00;98854.91;2202379;80;20447;-59
2022/09/20 14:31:17;;;;;;;;;;;;;;;15.65;100.00;98849.98;2207694;80;20107;-59
2022/09/20 14:34:18;;;;;;;;;;;;;;;15.72;100.00;98849.84;2207780;80;20105;-59
2022/09/20 14:37:20;;;;;;;;;;;;;;;15.78;100.00;98848.50;2206568;80;20399;-58
2022/09/20 14:40:21;;;;;;;;;;;;;;;15.94;100.00;98844.97;2205401;80;20089;-59
2022/09/20 14:43:23;;;;;;;;;;;;;;;15.82;100.00;98842.86;2207254;80;20105;-58
2022/09/20 14:46:25;;;;;;;;;;;;;;;15.61;100.00;98858.64;2203506;80;20105;-58
2022/09/20 14:49:26;;;;;;;;;;;;;;;15.71;100.00;98850.80;2201461;80;20096;-58
2022/09/20 14:52:27;;;;;;;;;;;;;;;15.83;100.00;98859.55;2202175;80;20383;-59
2022/09/20 14:55:31;;;;;;;;;;;;;;;15.21;100.00;98860.52;2204543;79;20109;-59
2022/09/20 14:58:32;;;;;;;;;;;;;;;14.71;100.00;98872.31;2168453;80;20097;-58
2022/09/20 15:01:34;;;;;;;;;;;;;;;14.53;100.00;98873.20;2200116;80;20136;-58
2022/09/20 15:04:36;;;;;;;;;;;;;;;14.23;100.00;98880.34;2207046;80;20411;-59
2022/09/20 15:07:38;;;;;;;;;;;;;;;14.38;100.00;98867.80;2204439;80;20104;-59
2022/09/20 15:10:39;;;;;;;;;;;;;;;14.25;100.00;98867.03;2200591;80;20123;-59
2022/09/20 15:13:41;;;;;;;;;;;;;;;14.40;100.00;98867.19;2208166;80;20395;-57
2022/09/20 15:16:42;;;;;;;;;;;;;;;14.46;100.00;98866.72;2198736;80;20112;-57
2022/09/20 15:19:45;;;;;;;;;;;;;;;14.40;100.00;98863.23;2204708;80;20100;-57
2022/09/20 15:22:47;;;;;;;;;;;;;;;14.08;100.00;98863.02;2204386;80;20431;-56
2022/09/20 15:25:49;;;;;;;;;;;;;;;14.57;100.00;98869.86;2202080;80;20096;-56
2022/09/20 15:28:51;;;;;;;;;;;;;;;15.94;100.00;98867.45;2207480;80;20210;-57
2022/09/20 15:31:52;;;;;;;;;;;;;;;17.31;100.00;98861.11;2207378;80;20399;-59
2022/09/20 15:34:56;;;;;;;;;;;;;;;18.21;100.00;98863.70;2180464;79;20097;-59
2022/09/20 15:37:57;;;;;;;;;;;;;;;18.97;100.00;98858.84;2220964;79;20100;-59
2022/09/20 15:40:59;;;;;;;;;;;;;;;19.62;100.00;98861.91;2214495;79;20097;-59
2022/09/20 15:44:00;;;;;;;;;;;;;;;20.12;100.00;98865.08;2206929;80;20108;-59
2022/09/20 15:47:03;;;;;;;;;;;;;;;20.51;100.00;98860.70;2201048;79;20138;-59